Time;durP1;ratioP1;P1;durP2;ratioP2;P2;SDS_P1;SDS_P2;PMS_P1;PMS_P2;Temp;Humidity;BMP_temperature;BMP_pressure;BME280_temperature;BME280_humidity;BME280_pressure;Samples;Min_cycle;Max_cycle;Signal;HPM_P1;HPM_P2
2022/02/05 00:02:20;;;;;;;;;;;;;;;29.77;18.35;100946.72;5074609;28;764;-23
2022/02/05 00:04:46;;;;;;;;;;;;;;;30.03;18.06;100948.81;5076816;28;832;-23
2022/02/05 00:07:13;;;;;;;;;;;;;;;29.84;18.22;100944.91;5075820;28;1902;-23
2022/02/05 00:39:55;;;;;;;;;;;;;;;29.76;18.62;100937.75;5075685;28;662;-23
2022/02/05 00:42:26;;;;;;;;;;;;;;;30.12;18.18;100933.22;5073891;28;1572;-25
2022/02/05 00:44:51;;;;;;;;;;;;;;;30.23;18.33;100933.72;5075635;28;820;-24
2022/02/05 00:47:17;;;;;;;;;;;;;;;29.93;18.70;100935.59;5074897;28;1901;-24
2022/02/05 00:49:43;;;;;;;;;;;;;;;30.19;18.28;100938.69;5075731;28;990;-24
2022/02/05 00:52:12;;;;;;;;;;;;;;;30.14;18.35;100936.56;5076076;28;984;-24
2022/02/05 00:54:39;;;;;;;;;;;;;;;30.04;18.26;100931.50;5074799;28;832;-23
2022/02/05 00:59:30;;;;;;;;;;;;;;;30.13;18.32;100928.63;5074697;28;914;-23
2022/02/05 01:01:56;;;;;;;;;;;;;;;30.06;18.25;100924.00;5075312;28;836;-23
2022/02/05 01:04:21;;;;;;;;;;;;;;;30.05;18.41;100925.03;5073794;28;853;-22
2022/02/05 01:06:46;;;;;;;;;;;;;;;30.02;18.40;100922.72;5074907;28;1953;-22
2022/02/05 01:09:17;;;;;;;;;;;;;;;30.10;18.34;100935.28;5075532;28;880;-24
2022/02/05 01:11:42;;;;;;;;;;;;;;;30.17;18.36;100925.31;5075796;28;793;-24
2022/02/05 01:14:10;;;;;;;;;;;;;;;29.58;18.77;100924.66;5072430;28;890;-22
2022/02/05 01:19:01;;;;;;;;;;;;;;;29.91;18.88;100928.69;5070333;28;810;-24
2022/02/05 01:24:00;;;;;;;;;;;;;;;30.11;18.62;100928.00;5075506;28;815;-25
2022/02/05 01:26:35;;;;;;;;;;;;;;;29.84;18.71;100922.38;5075052;28;1951;-24
2022/02/05 01:29:05;;;;;;;;;;;;;;;30.17;18.53;100930.75;5072928;28;861;-24
2022/02/05 01:31:38;;;;;;;;;;;;;;;30.10;18.22;100923.59;5076575;28;1287;-24
2022/02/05 01:34:18;;;;;;;;;;;;;;;30.34;18.23;100919.59;5079152;28;769;-25
2022/02/05 01:53:09;;;;;;;;;;;;;;;30.08;18.51;100906.69;5078491;28;775;-24
2022/02/05 01:58:58;;;;;;;;;;;;;;;30.07;18.70;100911.28;5049236;28;1435;-23
2022/02/05 02:11:59;;;;;;;;;;;;;;;29.89;18.51;100900.94;5077947;28;678;-24
2022/02/05 02:22:20;;;;;;;;;;;;;;;29.37;19.04;100885.72;5075488;28;815;-25
2022/02/05 02:25:02;;;;;;;;;;;;;;;29.22;19.12;100883.06;5077930;28;769;-24
2022/02/05 02:30:12;;;;;;;;;;;;;;;29.33;19.22;100876.28;5077547;28;921;-23
2022/02/05 02:32:41;;;;;;;;;;;;;;;29.55;18.96;100879.81;5077518;28;1355;-24
2022/02/05 02:35:12;;;;;;;;;;;;;;;29.63;18.78;100880.75;5071447;28;871;-24
2022/02/05 02:37:58;;;;;;;;;;;;;;;29.75;18.90;100876.44;5071031;28;821;-22
2022/02/05 02:40:36;;;;;;;;;;;;;;;29.87;18.67;100874.00;5073630;28;1330;-23
2022/02/05 02:43:13;;;;;;;;;;;;;;;29.64;18.83;100872.41;5077391;28;797;-24
2022/02/05 02:45:40;;;;;;;;;;;;;;;29.79;19.02;100875.03;5072686;28;871;-24
2022/02/05 02:48:06;;;;;;;;;;;;;;;30.13;18.66;100875.19;5073754;28;894;-24
2022/02/05 02:56:24;;;;;;;;;;;;;;;29.81;18.64;100872.94;5076969;28;789;-24
2022/02/05 02:58:44;;;;;;;;;;;;;;;30.01;18.70;100877.63;5075472;28;950;-24
2022/02/05 03:01:11;;;;;;;;;;;;;;;29.89;18.82;100882.81;5067814;28;1053;-24
2022/02/05 03:03:36;;;;;;;;;;;;;;;30.03;18.42;100878.28;5077043;28;832;-24
2022/02/05 03:06:02;;;;;;;;;;;;;;;29.81;18.69;100880.25;5077071;28;1902;-24
2022/02/05 03:08:27;;;;;;;;;;;;;;;30.08;18.51;100885.81;5076382;28;785;-24
2022/02/05 03:10:52;;;;;;;;;;;;;;;30.19;18.32;100879.00;5076814;28;905;-24
2022/02/05 03:13:17;;;;;;;;;;;;;;;29.96;18.70;100874.72;5076257;28;822;-24
2022/02/05 03:15:43;;;;;;;;;;;;;;;30.02;18.45;100873.06;5076688;28;1021;-24
2022/02/05 03:18:14;;;;;;;;;;;;;;;29.82;18.69;100876.47;5076526;28;830;-24
2022/02/05 03:20:39;;;;;;;;;;;;;;;29.91;18.53;100869.03;5077031;28;765;-24
2022/02/05 03:23:04;;;;;;;;;;;;;;;29.97;18.64;100859.25;5076827;28;734;-24
2022/02/05 03:25:30;;;;;;;;;;;;;;;30.30;18.32;100862.16;5075911;28;813;-24
2022/02/05 03:27:55;;;;;;;;;;;;;;;30.26;18.38;100863.59;5076570;28;1957;-24
2022/02/05 03:30:21;;;;;;;;;;;;;;;30.15;18.38;100854.13;5070352;28;903;-24
2022/02/05 03:32:46;;;;;;;;;;;;;;;30.00;18.45;100850.72;5076119;28;1052;-24
2022/02/05 03:35:11;;;;;;;;;;;;;;;30.22;18.27;100861.50;5076673;28;809;-24
2022/02/05 03:37:37;;;;;;;;;;;;;;;30.24;18.33;100867.56;5075906;28;817;-24
2022/02/05 03:40:02;;;;;;;;;;;;;;;30.29;18.18;100865.94;5072397;28;812;-24
2022/02/05 03:42:28;;;;;;;;;;;;;;;30.23;18.34;100861.28;5076375;28;745;-24
2022/02/05 03:44:53;;;;;;;;;;;;;;;29.92;18.51;100868.84;5074796;28;1093;-24
2022/02/05 03:47:18;;;;;;;;;;;;;;;30.09;18.44;100852.25;5076049;28;1968;-24
2022/02/05 03:49:43;;;;;;;;;;;;;;;30.01;18.42;100869.50;5076279;28;781;-24
2022/02/05 03:52:09;;;;;;;;;;;;;;;30.14;18.33;100855.19;5068217;28;796;-24
2022/02/05 03:54:35;;;;;;;;;;;;;;;30.01;18.48;100853.22;5075824;28;728;-24
2022/02/05 03:57:00;;;;;;;;;;;;;;;30.05;18.34;100856.38;5075608;28;931;-24
2022/02/05 03:59:25;;;;;;;;;;;;;;;30.09;18.35;100854.94;5074302;28;926;-24
2022/02/05 04:01:51;;;;;;;;;;;;;;;29.92;18.64;100855.28;5076666;28;769;-24
2022/02/05 04:04:16;;;;;;;;;;;;;;;30.11;18.28;100866.44;5075262;28;836;-24
2022/02/05 04:06:42;;;;;;;;;;;;;;;30.10;18.45;100870.19;5076445;28;1952;-24
2022/02/05 04:09:15;;;;;;;;;;;;;;;29.84;18.69;100860.00;5074713;28;1097;-24
2022/02/05 04:16:58;;;;;;;;;;;;;;;30.01;18.62;100855.94;5069987;28;800;-23
2022/02/05 04:19:24;;;;;;;;;;;;;;;30.35;18.23;100852.56;5075141;28;778;-23
2022/02/05 04:21:49;;;;;;;;;;;;;;;29.92;17.51;100860.69;5075559;28;807;-23
2022/02/05 04:24:14;;;;;;;;;;;;;;;29.77;17.67;100855.41;5074482;28;832;-23
2022/02/05 04:26:40;;;;;;;;;;;;;;;29.33;17.87;100855.47;5075993;28;1894;-22
2022/02/05 04:29:06;;;;;;;;;;;;;;;28.68;18.22;100848.16;5072357;28;855;-23
2022/02/05 04:31:31;;;;;;;;;;;;;;;29.05;18.32;100855.41;5072701;28;1143;-23
2022/02/05 04:33:56;;;;;;;;;;;;;;;29.09;18.17;100856.72;5075885;28;801;-23
2022/02/05 04:36:22;;;;;;;;;;;;;;;29.37;17.75;100855.06;5075765;28;848;-23
2022/02/05 04:38:49;;;;;;;;;;;;;;;29.30;17.68;100845.00;5076116;28;836;-24
2022/02/05 04:46:44;;;;;;;;;;;;;;;27.78;12.91;100850.94;5070631;28;1910;-25
2022/02/05 04:51:50;;;;;;;;;;;;;;;25.17;13.65;100854.91;5075796;28;831;-26
2022/02/05 04:54:36;;;;;;;;;;;;;;;25.15;16.38;100865.03;5070655;28;995;-23
2022/02/05 05:02:29;;;;;;;;;;;;;;;25.26;17.22;100855.75;5075473;28;723;-25
2022/02/05 05:05:03;;;;;;;;;;;;;;;25.60;18.00;100858.44;5076751;28;844;-24
2022/02/05 05:13:12;;;;;;;;;;;;;;;25.02;18.90;100865.50;5078705;28;817;-23
2022/02/05 05:21:04;;;;;;;;;;;;;;;26.26;18.25;100858.31;5078348;28;878;-24
2022/02/05 05:23:29;;;;;;;;;;;;;;;26.09;18.39;100868.28;5079370;28;756;-24
2022/02/05 05:25:55;;;;;;;;;;;;;;;26.32;18.20;100864.03;5078849;28;1898;-24
2022/02/05 05:28:20;;;;;;;;;;;;;;;26.39;18.31;100863.16;5079380;28;828;-24
2022/02/05 05:30:45;;;;;;;;;;;;;;;26.60;18.22;100877.06;5078775;28;858;-24
2022/02/05 05:33:11;;;;;;;;;;;;;;;26.39;18.43;100871.25;5077970;28;1063;-23
2022/02/05 05:35:36;;;;;;;;;;;;;;;25.98;18.96;100876.75;5078416;28;886;-25
2022/02/05 05:38:03;;;;;;;;;;;;;;;25.64;19.52;100887.59;5078834;28;797;-25
2022/02/05 05:40:28;;;;;;;;;;;;;;;25.53;19.48;100883.38;5079001;28;778;-23
2022/02/05 05:43:01;;;;;;;;;;;;;;;25.73;19.57;100888.44;5079059;28;809;-25
2022/02/05 05:45:41;;;;;;;;;;;;;;;25.87;19.53;100876.13;5078830;28;914;-23
2022/02/05 05:48:15;;;;;;;;;;;;;;;25.96;19.41;100890.41;5079025;28;1967;-24
2022/02/05 05:53:09;;;;;;;;;;;;;;;26.47;18.89;100885.72;5078290;28;741;-23
2022/02/05 05:55:34;;;;;;;;;;;;;;;26.70;18.56;100888.50;5078701;28;824;-23
2022/02/05 05:58:00;;;;;;;;;;;;;;;26.67;18.74;100891.53;5078304;28;889;-23
2022/02/05 06:00:25;;;;;;;;;;;;;;;26.46;19.08;100875.97;5076836;28;894;-24
2022/02/05 06:02:50;;;;;;;;;;;;;;;26.38;19.31;100887.63;5078625;28;1442;-24
2022/02/05 06:05:16;;;;;;;;;;;;;;;26.37;19.44;100889.50;5076677;28;867;-24
2022/02/05 06:07:41;;;;;;;;;;;;;;;26.36;19.10;100887.78;5078375;28;1894;-24
2022/02/05 06:10:07;;;;;;;;;;;;;;;26.33;19.25;100879.19;5078365;28;888;-24
2022/02/05 06:12:32;;;;;;;;;;;;;;;26.28;19.46;100888.66;5074042;28;834;-23
2022/02/05 06:15:00;;;;;;;;;;;;;;;26.21;19.46;100884.94;5077387;28;938;-24
2022/02/05 06:17:26;;;;;;;;;;;;;;;26.33;19.54;100885.44;5077607;28;820;-23
2022/02/05 06:19:51;;;;;;;;;;;;;;;26.22;19.69;100886.66;5077903;28;930;-23
2022/02/05 06:22:16;;;;;;;;;;;;;;;26.17;19.73;100889.03;5078017;28;852;-24
2022/02/05 06:24:42;;;;;;;;;;;;;;;25.49;20.45;100890.09;5077491;28;876;-22
2022/02/05 06:27:07;;;;;;;;;;;;;;;25.40;20.58;100888.41;5078021;28;1902;-25
2022/02/05 06:29:33;;;;;;;;;;;;;;;25.44;20.71;100887.91;5078188;28;823;-24
2022/02/05 06:31:58;;;;;;;;;;;;;;;25.30;20.51;100881.34;5077511;28;1404;-24
2022/02/05 06:34:23;;;;;;;;;;;;;;;25.13;21.12;100887.72;5077593;28;833;-23
2022/02/05 06:36:49;;;;;;;;;;;;;;;25.12;20.93;100886.03;5073700;28;963;-23
2022/02/05 06:39:14;;;;;;;;;;;;;;;25.13;21.06;100885.88;5077467;28;855;-23
2022/02/05 06:41:40;;;;;;;;;;;;;;;25.04;21.33;100884.19;5077178;28;836;-22
2022/02/05 06:44:05;;;;;;;;;;;;;;;24.92;21.46;100880.97;5076942;28;859;-23
2022/02/05 06:46:30;;;;;;;;;;;;;;;24.96;21.31;100885.00;5077326;28;1903;-23
2022/02/05 06:48:55;;;;;;;;;;;;;;;24.73;21.64;100882.03;5077403;28;840;-22
2022/02/05 06:51:21;;;;;;;;;;;;;;;24.71;21.51;100871.44;5077170;28;908;-24
2022/02/05 06:53:46;;;;;;;;;;;;;;;24.53;21.76;100877.78;5077262;28;761;-24
2022/02/05 06:56:11;;;;;;;;;;;;;;;24.35;21.99;100872.50;5077544;28;951;-24
2022/02/05 06:58:37;;;;;;;;;;;;;;;24.39;21.91;100876.53;5077575;28;785;-23
2022/02/05 07:01:02;;;;;;;;;;;;;;;24.82;21.58;100878.38;5077414;28;966;-23
2022/02/05 07:03:27;;;;;;;;;;;;;;;25.00;21.26;100874.75;5073817;28;951;-25
2022/02/05 07:05:52;;;;;;;;;;;;;;;25.10;21.17;100877.28;5077116;28;1871;-25
2022/02/05 07:08:18;;;;;;;;;;;;;;;25.19;21.09;100879.81;5076884;28;812;-24
2022/02/05 07:10:43;;;;;;;;;;;;;;;25.41;20.75;100884.69;5077164;28;845;-24
2022/02/05 07:13:12;;;;;;;;;;;;;;;25.52;20.57;100881.69;5077075;28;900;-24
2022/02/05 07:15:43;;;;;;;;;;;;;;;25.04;20.45;100788.13;5076628;28;982;-24
2022/02/05 07:21:04;;;;;;;;;;;;;;;25.62;20.30;100886.06;5048091;28;1160;-26
2022/02/05 07:24:08;;;;;;;;;;;;;;;25.78;20.15;100894.16;5077017;28;853;-24
2022/02/05 07:29:17;;;;;;;;;;;;;;;26.05;19.65;100896.63;5070143;28;761;-22
2022/02/05 07:31:46;;;;;;;;;;;;;;;26.16;19.92;100885.47;5075965;28;1329;-22
2022/02/05 07:34:12;;;;;;;;;;;;;;;25.95;19.97;100893.28;5076060;28;852;-22
2022/02/05 07:36:37;;;;;;;;;;;;;;;25.98;19.97;100884.84;5076412;28;824;-23
2022/02/05 07:39:02;;;;;;;;;;;;;;;25.94;20.21;100881.66;5076679;28;802;-25
2022/02/05 07:41:28;;;;;;;;;;;;;;;25.93;19.98;100890.75;5069816;28;760;-25
2022/02/05 07:43:53;;;;;;;;;;;;;;;25.52;20.55;100888.94;5076516;28;894;-24
2022/02/05 07:46:19;;;;;;;;;;;;;;;25.19;20.92;100887.88;5076341;28;1906;-25
2022/02/05 07:48:44;;;;;;;;;;;;;;;25.06;21.02;100869.53;5076556;28;796;-24
2022/02/05 07:51:09;;;;;;;;;;;;;;;25.52;20.87;100870.06;5071930;28;918;-23
2022/02/05 07:53:35;;;;;;;;;;;;;;;26.33;19.80;100871.97;5069001;28;882;-26
2022/02/05 07:56:01;;;;;;;;;;;;;;;26.87;19.43;100864.09;5076483;28;857;-23
2022/02/05 07:58:26;;;;;;;;;;;;;;;27.09;18.98;100870.56;5076232;28;822;-25
2022/02/05 08:00:55;;;;;;;;;;;;;;;27.53;18.75;100864.66;5074631;28;1197;-25
2022/02/05 08:03:20;;;;;;;;;;;;;;;27.40;18.65;100860.69;5060398;28;1422;-26
2022/02/05 08:05:45;;;;;;;;;;;;;;;27.56;18.76;100859.69;5076023;28;829;-27
2022/02/05 08:08:15;;;;;;;;;;;;;;;27.71;18.62;100861.66;5076159;28;1894;-27
2022/02/05 08:10:49;;;;;;;;;;;;;;;27.80;18.31;100863.22;5076264;28;798;-27
2022/02/05 08:13:15;;;;;;;;;;;;;;;28.11;18.10;100867.59;5076293;28;812;-27
2022/02/05 08:15:40;;;;;;;;;;;;;;;27.50;18.69;100869.41;5075923;28;851;-27
2022/02/05 08:18:06;;;;;;;;;;;;;;;26.65;19.70;100861.19;5076351;28;786;-25
2022/02/05 08:20:31;;;;;;;;;;;;;;;26.50;19.99;100864.66;5072744;28;833;-26
2022/02/05 08:22:57;;;;;;;;;;;;;;;26.40;19.90;100855.91;5076133;28;876;-24
2022/02/05 08:25:24;;;;;;;;;;;;;;;26.30;20.42;100866.91;5076654;28;814;-24
2022/02/05 08:27:49;;;;;;;;;;;;;;;26.21;20.25;100866.06;5076187;28;1901;-25
2022/02/05 08:30:15;;;;;;;;;;;;;;;26.19;20.21;100859.19;5071286;28;864;-26
2022/02/05 08:32:41;;;;;;;;;;;;;;;26.29;20.42;100855.25;5075396;28;996;-25
2022/02/05 08:35:06;;;;;;;;;;;;;;;26.32;20.34;100851.38;5076060;28;812;-24
2022/02/05 08:37:39;;;;;;;;;;;;;;;26.34;20.19;100845.84;5076011;28;909;-25
2022/02/05 08:40:05;;;;;;;;;;;;;;;26.33;20.45;100852.22;5079223;28;876;-25
2022/02/05 08:42:31;;;;;;;;;;;;;;;26.50;19.82;100847.63;5080616;28;918;-25
2022/02/05 08:44:56;;;;;;;;;;;;;;;26.39;20.37;100852.38;5076595;28;844;-25
2022/02/05 08:47:21;;;;;;;;;;;;;;;26.51;19.94;100849.28;5079631;28;1963;-25
2022/02/05 08:49:47;;;;;;;;;;;;;;;26.04;20.60;100838.34;5080669;28;817;-25
2022/02/05 08:52:12;;;;;;;;;;;;;;;26.21;20.56;100852.59;5080119;28;748;-25
2022/02/05 08:54:38;;;;;;;;;;;;;;;26.27;20.62;100840.28;5079809;28;793;-25
2022/02/05 08:57:03;;;;;;;;;;;;;;;26.20;20.71;100844.69;5078811;28;903;-25
2022/02/05 08:59:35;;;;;;;;;;;;;;;26.19;20.63;100843.00;5079452;28;827;-25
2022/02/05 09:02:09;;;;;;;;;;;;;;;26.14;20.59;100846.22;5079206;28;927;-25
2022/02/05 09:04:48;;;;;;;;;;;;;;;26.07;20.49;100842.53;5079421;28;869;-25
2022/02/05 09:07:13;;;;;;;;;;;;;;;26.45;20.24;100845.44;5079022;28;1971;-24
2022/02/05 09:14:59;;;;;;;;;;;;;;;26.46;20.33;100840.91;5073958;28;820;-25
2022/02/05 09:17:24;;;;;;;;;;;;;;;26.49;20.23;100841.38;5079051;28;962;-24
2022/02/05 09:19:50;;;;;;;;;;;;;;;26.58;20.11;100844.03;5078665;28;897;-24
2022/02/05 09:22:15;;;;;;;;;;;;;;;26.65;20.09;100837.75;5075990;28;921;-25
2022/02/05 09:24:41;;;;;;;;;;;;;;;26.62;19.98;100843.50;5075679;28;790;-25
2022/02/05 09:27:09;;;;;;;;;;;;;;;26.67;20.06;100842.13;5079122;28;1967;-25
2022/02/05 09:29:42;;;;;;;;;;;;;;;26.73;20.17;100842.25;5079099;28;843;-25
2022/02/05 09:32:07;;;;;;;;;;;;;;;26.79;19.94;100835.31;5078533;28;1204;-24
2022/02/05 09:34:33;;;;;;;;;;;;;;;26.92;19.86;100833.88;5079352;28;821;-24
2022/02/05 09:36:59;;;;;;;;;;;;;;;27.06;19.94;100826.91;5075437;28;847;-24
2022/02/05 09:39:24;;;;;;;;;;;;;;;27.02;19.72;100827.25;5079327;28;803;-25
2022/02/05 09:41:50;;;;;;;;;;;;;;;27.04;19.99;100815.44;5075091;28;1109;-24
2022/02/05 09:44:15;;;;;;;;;;;;;;;26.99;19.81;100811.38;5071256;28;1359;-26
2022/02/05 09:46:40;;;;;;;;;;;;;;;26.92;19.74;100804.19;5078774;28;1980;-26
2022/02/05 09:49:06;;;;;;;;;;;;;;;26.82;19.79;100812.53;5071962;28;941;-25
2022/02/05 09:51:34;;;;;;;;;;;;;;;26.78;20.10;100804.78;5077567;28;812;-25
2022/02/05 09:54:03;;;;;;;;;;;;;;;26.82;19.91;100797.19;5072481;28;1142;-24
2022/02/05 09:56:29;;;;;;;;;;;;;;;27.20;19.48;100809.03;5072582;28;753;-25
2022/02/05 09:58:54;;;;;;;;;;;;;;;26.76;20.09;100804.13;5077360;28;894;-25
2022/02/05 10:01:23;;;;;;;;;;;;;;;27.07;20.04;100804.25;5077730;28;865;-26
2022/02/05 10:03:49;;;;;;;;;;;;;;;27.01;19.66;100793.16;5077906;28;850;-26
2022/02/05 10:06:18;;;;;;;;;;;;;;;27.05;19.89;100792.78;5078336;28;1906;-26
2022/02/05 10:08:54;;;;;;;;;;;;;;;27.06;19.74;100784.50;5071648;28;1212;-25
2022/02/05 10:11:19;;;;;;;;;;;;;;;27.05;19.56;100784.69;5076597;28;1164;-26
2022/02/05 10:13:45;;;;;;;;;;;;;;;26.99;19.78;100773.56;5078003;28;808;-26
2022/02/05 10:16:10;;;;;;;;;;;;;;;27.02;19.60;100777.81;5078555;28;781;-26
2022/02/05 10:18:35;;;;;;;;;;;;;;;26.99;19.61;100776.28;5076744;28;1361;-27
2022/02/05 10:21:19;;;;;;;;;;;;;;;26.95;19.72;100776.81;5078064;28;813;-26
2022/02/05 10:23:55;;;;;;;;;;;;;;;27.00;19.70;100769.88;5077507;28;770;-25
2022/02/05 10:26:27;;;;;;;;;;;;;;;26.92;19.72;100763.69;5075475;28;1905;-25
2022/02/05 10:28:59;;;;;;;;;;;;;;;26.88;19.97;100764.06;5077613;28;919;-25
2022/02/05 10:31:25;;;;;;;;;;;;;;;26.98;19.63;100757.56;5077749;28;1239;-25
2022/02/05 10:34:14;;;;;;;;;;;;;;;26.94;19.65;100758.97;5076264;28;1175;-25
2022/02/05 10:36:44;;;;;;;;;;;;;;;26.98;19.77;100755.72;5077409;28;788;-25
2022/02/05 10:39:14;;;;;;;;;;;;;;;27.06;19.53;100760.22;5077723;28;814;-25
2022/02/05 10:44:32;;;;;;;;;;;;;;;27.10;19.56;100752.59;5077332;28;815;-25
2022/02/05 10:46:57;;;;;;;;;;;;;;;26.98;19.55;100754.84;5077247;28;1906;-25
2022/02/05 10:49:48;;;;;;;;;;;;;;;27.16;19.57;100748.34;5077161;28;805;-25
2022/02/05 10:52:33;;;;;;;;;;;;;;;26.70;19.81;100742.78;5073309;28;825;-26
2022/02/05 10:55:19;;;;;;;;;;;;;;;26.32;20.48;100738.13;5077507;28;788;-24
2022/02/05 10:57:58;;;;;;;;;;;;;;;26.25;20.35;100738.00;5076815;28;1739;-25
2022/02/05 11:06:06;;;;;;;;;;;;;;;26.23;20.52;100725.69;5076237;28;829;-25
2022/02/05 11:08:24;;;;;;;;;;;;;;;26.11;20.33;100726.09;5075418;28;2029;-25
2022/02/05 11:18:55;;;;;;;;;;;;;;;26.29;20.40;100706.94;5071931;28;712;-24
2022/02/05 11:21:20;;;;;;;;;;;;;;;26.51;20.21;100704.47;5075976;28;841;-25
2022/02/05 11:23:46;;;;;;;;;;;;;;;27.00;19.88;100705.06;5076555;28;746;-25
2022/02/05 11:26:12;;;;;;;;;;;;;;;27.21;19.55;100702.72;5076618;28;1903;-25
2022/02/05 11:28:40;;;;;;;;;;;;;;;27.23;19.08;100696.09;5076628;28;834;-24
2022/02/05 11:31:09;;;;;;;;;;;;;;;27.60;19.00;100706.16;5069415;28;1194;-24
2022/02/05 11:33:34;;;;;;;;;;;;;;;27.68;18.83;100697.97;5070531;28;765;-24
2022/02/05 11:38:42;;;;;;;;;;;;;;;28.06;18.32;100690.75;5076992;28;830;-25
2022/02/05 11:41:08;;;;;;;;;;;;;;;28.12;18.54;100695.38;5077018;28;772;-25
2022/02/05 11:43:36;;;;;;;;;;;;;;;27.99;18.64;100690.66;5074410;28;1209;-25
2022/02/05 11:46:07;;;;;;;;;;;;;;;27.90;18.46;100684.53;5076192;28;1886;-25
2022/02/05 11:48:36;;;;;;;;;;;;;;;27.78;18.97;100688.75;5076568;28;765;-24
2022/02/05 11:51:08;;;;;;;;;;;;;;;27.77;18.80;100673.56;5076424;28;841;-25
2022/02/05 11:53:53;;;;;;;;;;;;;;;28.00;18.50;100681.50;5076629;28;837;-24
2022/02/05 11:56:19;;;;;;;;;;;;;;;27.97;18.76;100685.44;5073829;28;1332;-25
2022/02/05 11:58:59;;;;;;;;;;;;;;;28.26;18.36;100684.72;5075182;28;1116;-25
2022/02/05 12:01:38;;;;;;;;;;;;;;;28.26;18.22;100682.81;5076345;28;802;-25
2022/02/05 12:04:13;;;;;;;;;;;;;;;28.10;18.48;100686.63;5070300;28;826;-25
2022/02/05 12:07:00;;;;;;;;;;;;;;;28.20;18.20;100686.31;5076164;28;1955;-25
2022/02/05 12:09:39;;;;;;;;;;;;;;;28.08;18.79;100677.84;5069276;28;1206;-25
2022/02/05 12:12:39;;;;;;;;;;;;;;;28.15;18.58;100684.19;5076213;28;811;-24
2022/02/05 12:15:10;;;;;;;;;;;;;;;27.94;18.65;100677.72;5041990;28;1167;-25
2022/02/05 12:17:58;;;;;;;;;;;;;;;27.91;18.84;100680.78;5075574;28;821;-24
2022/02/05 12:20:27;;;;;;;;;;;;;;;28.06;18.50;100683.44;5074352;28;907;-25
2022/02/05 12:23:03;;;;;;;;;;;;;;;28.20;18.59;100683.59;5074369;28;797;-24
2022/02/05 12:25:28;;;;;;;;;;;;;;;28.18;18.31;100672.13;5076379;28;844;-25
2022/02/05 12:27:53;;;;;;;;;;;;;;;27.76;18.95;100680.81;5075652;28;1975;-25
2022/02/05 12:30:38;;;;;;;;;;;;;;;27.54;19.28;100672.63;5075291;28;894;-25
2022/02/05 12:33:03;;;;;;;;;;;;;;;27.45;19.24;100677.28;5074914;28;1242;-25
2022/02/05 12:35:29;;;;;;;;;;;;;;;27.74;18.98;100678.31;5070582;28;825;-26
2022/02/05 12:37:54;;;;;;;;;;;;;;;28.08;18.46;100669.72;5075963;28;865;-26
2022/02/05 12:40:20;;;;;;;;;;;;;;;28.21;18.43;100677.16;5074545;28;1186;-25
2022/02/05 12:42:52;;;;;;;;;;;;;;;28.93;17.83;100668.22;5075924;28;915;-25
2022/02/05 12:45:23;;;;;;;;;;;;;;;29.42;17.01;100666.47;5076215;28;887;-25
2022/02/05 12:47:49;;;;;;;;;;;;;;;29.74;16.90;100666.00;5075008;28;1898;-25
2022/02/05 12:50:16;;;;;;;;;;;;;;;30.06;16.60;100670.91;5073970;28;852;-24
2022/02/05 12:52:41;;;;;;;;;;;;;;;30.03;16.23;100677.56;5074838;28;805;-25
2022/02/05 12:55:13;;;;;;;;;;;;;;;30.51;16.19;100674.97;5074670;28;1348;-24
2022/02/05 12:57:44;;;;;;;;;;;;;;;30.93;15.64;100682.88;5075699;28;884;-25
2022/02/05 13:00:10;;;;;;;;;;;;;;;31.15;15.46;100682.66;5068627;28;853;-25
2022/02/05 13:02:35;;;;;;;;;;;;;;;31.46;15.04;100683.88;5075674;28;829;-25
2022/02/05 13:05:00;;;;;;;;;;;;;;;32.05;14.54;100682.16;5075873;28;869;-25
2022/02/05 13:07:26;;;;;;;;;;;;;;;32.06;14.42;100678.38;5075818;28;2008;-25
2022/02/05 13:09:57;;;;;;;;;;;;;;;32.19;14.33;100677.44;5075515;28;953;-25
2022/02/05 13:12:26;;;;;;;;;;;;;;;31.95;14.57;100679.88;5071865;28;1001;-26
2022/02/05 13:15:02;;;;;;;;;;;;;;;32.35;14.17;100676.06;5075009;28;846;-26
2022/02/05 13:35:55;;;;;;;;;;;;;;;32.11;14.33;100681.28;5078805;28;646;-25
2022/02/05 13:38:21;;;;;;;;;;;;;;;32.05;14.28;100679.44;5074904;28;783;-25
2022/02/05 13:40:50;;;;;;;;;;;;;;;31.65;14.80;100675.81;5078943;28;753;-25
2022/02/05 13:43:19;;;;;;;;;;;;;;;31.40;15.11;100681.97;5078982;28;793;-25
2022/02/05 13:45:44;;;;;;;;;;;;;;;31.25;15.34;100688.47;5078785;28;863;-24
2022/02/05 13:48:15;;;;;;;;;;;;;;;30.88;15.70;100675.38;5078885;28;1967;-24
2022/02/05 13:50:40;;;;;;;;;;;;;;;29.96;16.06;100667.75;5076560;28;1367;-23
2022/02/05 13:53:11;;;;;;;;;;;;;;;29.82;16.29;100683.97;5078555;28;994;-23
2022/02/05 13:55:37;;;;;;;;;;;;;;;29.38;16.68;100673.31;5078517;28;816;-24
2022/02/05 13:58:09;;;;;;;;;;;;;;;29.21;16.78;100683.66;5078720;28;1056;-24
2022/02/05 14:00:37;;;;;;;;;;;;;;;28.96;17.35;100684.09;5073219;28;961;-24
2022/02/05 14:03:05;;;;;;;;;;;;;;;28.59;17.63;100690.44;5073772;28;892;-24
2022/02/05 14:05:30;;;;;;;;;;;;;;;28.08;18.32;100676.00;5079108;28;838;-24
2022/02/05 14:07:55;;;;;;;;;;;;;;;28.19;18.07;100685.47;5078116;28;1902;-24
2022/02/05 14:10:22;;;;;;;;;;;;;;;27.82;18.54;100679.22;5078685;28;796;-24
2022/02/05 14:12:53;;;;;;;;;;;;;;;28.19;18.13;100688.19;5078076;28;914;-24
2022/02/05 14:15:19;;;;;;;;;;;;;;;29.09;17.16;100689.59;5072626;28;902;-24
2022/02/05 14:17:48;;;;;;;;;;;;;;;29.07;17.34;100688.16;5078053;28;821;-24
2022/02/05 14:20:14;;;;;;;;;;;;;;;29.66;16.83;100685.16;5078233;28;905;-24
2022/02/05 14:22:40;;;;;;;;;;;;;;;29.57;16.86;100687.19;5078116;28;813;-24
2022/02/05 14:25:13;;;;;;;;;;;;;;;29.59;16.81;100682.44;5077915;28;845;-24
2022/02/05 14:27:57;;;;;;;;;;;;;;;29.43;16.75;100691.69;5076429;28;1902;-25
2022/02/05 14:30:26;;;;;;;;;;;;;;;28.95;17.26;100691.38;5074531;28;887;-25
2022/02/05 14:32:53;;;;;;;;;;;;;;;29.14;17.31;100691.75;5077921;28;1210;-25
2022/02/05 14:35:41;;;;;;;;;;;;;;;28.90;17.65;100692.97;5078313;28;829;-23
2022/02/05 14:40:50;;;;;;;;;;;;;;;30.32;16.18;100691.00;5075610;28;780;-24
2022/02/05 14:43:17;;;;;;;;;;;;;;;31.03;15.36;100696.06;5077368;28;912;-23
2022/02/05 14:45:42;;;;;;;;;;;;;;;31.48;15.24;100698.06;5077175;28;1044;-23
2022/02/05 14:48:07;;;;;;;;;;;;;;;31.76;14.71;100704.25;5077644;28;1976;-24
2022/02/05 14:50:33;;;;;;;;;;;;;;;31.52;14.92;100693.03;5077261;28;864;-23
2022/02/05 14:52:58;;;;;;;;;;;;;;;30.15;16.04;100695.94;5074818;28;1291;-25
2022/02/05 14:55:23;;;;;;;;;;;;;;;29.24;17.10;100696.81;5062656;28;1319;-25
2022/02/05 14:57:49;;;;;;;;;;;;;;;28.86;17.39;100706.09;5062881;28;1375;-25
2022/02/05 15:00:14;;;;;;;;;;;;;;;28.73;17.81;100707.66;5065726;28;1347;-24
2022/02/05 15:02:40;;;;;;;;;;;;;;;28.89;17.56;100710.28;5070539;28;1272;-22
2022/02/05 15:05:11;;;;;;;;;;;;;;;29.02;17.47;100710.41;5077389;28;873;-23
2022/02/05 15:07:37;;;;;;;;;;;;;;;28.58;18.29;100720.41;5074750;28;1897;-23
2022/02/05 15:10:03;;;;;;;;;;;;;;;28.34;18.50;100719.78;5076906;28;848;-24
2022/02/05 15:12:28;;;;;;;;;;;;;;;28.17;18.47;100728.09;5077192;28;783;-24
2022/02/05 15:14:53;;;;;;;;;;;;;;;28.34;18.16;100728.72;5076835;28;872;-24
2022/02/05 15:17:19;;;;;;;;;;;;;;;28.08;18.62;100726.53;5077207;28;837;-22
2022/02/05 15:19:44;;;;;;;;;;;;;;;28.03;18.39;100726.28;5071117;28;921;-23
2022/02/05 15:22:09;;;;;;;;;;;;;;;28.04;18.40;100726.09;5076971;28;914;-23
2022/02/05 15:24:34;;;;;;;;;;;;;;;28.03;18.66;100715.47;5076995;28;722;-22
2022/02/05 15:27:01;;;;;;;;;;;;;;;27.93;18.81;100723.84;5076913;28;1941;-24
2022/02/05 15:29:26;;;;;;;;;;;;;;;27.87;18.79;100718.19;5077109;28;997;-24
2022/02/05 15:31:53;;;;;;;;;;;;;;;27.93;18.74;100719.28;5075767;28;1044;-23
2022/02/05 15:34:18;;;;;;;;;;;;;;;27.98;18.59;100721.41;5076781;28;808;-23
2022/02/05 15:36:50;;;;;;;;;;;;;;;28.10;18.49;100719.06;5076349;28;813;-23
2022/02/05 15:44:25;;;;;;;;;;;;;;;28.16;18.56;100715.59;5072830;28;941;-23
2022/02/05 15:46:50;;;;;;;;;;;;;;;28.02;18.97;100722.72;5074175;28;1898;-23
2022/02/05 15:49:15;;;;;;;;;;;;;;;28.26;18.65;100736.09;5075671;28;1196;-23
2022/02/05 15:51:41;;;;;;;;;;;;;;;28.28;18.80;100731.34;5076470;28;912;-23
2022/02/05 15:54:08;;;;;;;;;;;;;;;28.36;18.91;100732.06;5076119;28;1522;-23